sensor_id;sensor_type;location;lat;lon;timestamp;temperature;humidity
35678;DHT22;21791;42.828;74.582;2022-12-08T00:01:17;-8.30;99.90
35678;DHT22;21791;42.828;74.582;2022-12-08T00:03:44;-8.30;99.90
35678;DHT22;21791;42.828;74.582;2022-12-08T00:06:26;-8.10;99.90
35678;DHT22;21791;42.828;74.582;2022-12-08T00:12:00;-7.90;99.90
35678;DHT22;21791;42.828;74.582;2022-12-08T00:14:29;-7.80;99.90
35678;DHT22;21791;42.828;74.582;2022-12-08T00:16:56;-7.70;99.90
35678;DHT22;21791;42.828;74.582;2022-12-08T00:19:24;-7.70;99.90
35678;DHT22;21791;42.828;74.582;2022-12-08T00:21:51;-7.70;99.90
35678;DHT22;21791;42.828;74.582;2022-12-08T00:24:18;-7.80;99.90
35678;DHT22;21791;42.828;74.582;2022-12-08T00:26:45;-8.00;99.90
35678;DHT22;21791;42.828;74.582;2022-12-08T00:29:12;-8.00;99.90
35678;DHT22;21791;42.828;74.582;2022-12-08T00:31:39;-8.20;99.90
35678;DHT22;21791;42.828;74.582;2022-12-08T00:34:06;-7.80;99.90
35678;DHT22;21791;42.828;74.582;2022-12-08T00:36:33;-7.70;99.90
35678;DHT22;21791;42.828;74.582;2022-12-08T00:39:00;-7.60;99.90
35678;DHT22;21791;42.828;74.582;2022-12-08T00:41:27;-7.60;99.90
35678;DHT22;21791;42.828;74.582;2022-12-08T00:44:14;-7.70;99.90
35678;DHT22;21791;42.828;74.582;2022-12-08T00:46:41;-7.60;99.90
35678;DHT22;21791;42.828;74.582;2022-12-08T00:49:08;-7.50;99.90
35678;DHT22;21791;42.828;74.582;2022-12-08T00:51:35;-7.50;99.90
35678;DHT22;21791;42.828;74.582;2022-12-08T00:54:03;-7.50;99.90
35678;DHT22;21791;42.828;74.582;2022-12-08T00:56:30;-7.60;99.90
35678;DHT22;21791;42.828;74.582;2022-12-08T00:58:57;-7.60;99.90
35678;DHT22;21791;42.828;74.582;2022-12-08T01:01:26;-7.50;99.90
35678;DHT22;21791;42.828;74.582;2022-12-08T01:03:53;-7.50;99.90
35678;DHT22;21791;42.828;74.582;2022-12-08T01:06:19;-7.60;99.90
35678;DHT22;21791;42.828;74.582;2022-12-08T01:08:46;-7.50;99.90
35678;DHT22;21791;42.828;74.582;2022-12-08T01:11:17;-7.50;99.90
35678;DHT22;21791;42.828;74.582;2022-12-08T01:13:44;-7.40;99.90
35678;DHT22;21791;42.828;74.582;2022-12-08T01:16:23;-7.30;99.90
35678;DHT22;21791;42.828;74.582;2022-12-08T01:18:50;-7.20;99.90
35678;DHT22;21791;42.828;74.582;2022-12-08T01:21:17;-7.20;99.90
35678;DHT22;21791;42.828;74.582;2022-12-08T01:23:44;-7.20;99.90
35678;DHT22;21791;42.828;74.582;2022-12-08T01:26:12;-7.10;99.90
35678;DHT22;21791;42.828;74.582;2022-12-08T01:28:40;-7.20;99.90
35678;DHT22;21791;42.828;74.582;2022-12-08T01:31:14;-7.10;99.90
35678;DHT22;21791;42.828;74.582;2022-12-08T01:33:42;-7.20;99.90
35678;DHT22;21791;42.828;74.582;2022-12-08T01:36:21;-7.20;99.90
35678;DHT22;21791;42.828;74.582;2022-12-08T01:38:49;-7.00;99.90
35678;DHT22;21791;42.828;74.582;2022-12-08T01:41:18;-6.80;99.90
35678;DHT22;21791;42.828;74.582;2022-12-08T01:46:35;-6.50;99.90
35678;DHT22;21791;42.828;74.582;2022-12-08T01:49:12;-6.30;99.90
35678;DHT22;21791;42.828;74.582;2022-12-08T01:51:47;-6.40;99.90
35678;DHT22;21791;42.828;74.582;2022-12-08T01:54:19;-6.40;99.90
35678;DHT22;21791;42.828;74.582;2022-12-08T01:57:07;-6.20;99.90
35678;DHT22;21791;42.828;74.582;2022-12-08T01:59:38;-6.10;99.90
35678;DHT22;21791;42.828;74.582;2022-12-08T02:02:10;-6.00;99.90
35678;DHT22;21791;42.828;74.582;2022-12-08T02:04:38;-5.90;99.90
35678;DHT22;21791;42.828;74.582;2022-12-08T02:07:06;-6.00;99.90
35678;DHT22;21791;42.828;74.582;2022-12-08T02:09:34;-6.00;99.90
35678;DHT22;21791;42.828;74.582;2022-12-08T02:12:01;-5.80;99.90
35678;DHT22;21791;42.828;74.582;2022-12-08T02:14:27;-5.70;99.90
35678;DHT22;21791;42.828;74.582;2022-12-08T02:17:22;-5.70;99.90
35678;DHT22;21791;42.828;74.582;2022-12-08T02:25:39;-5.90;99.90
35678;DHT22;21791;42.828;74.582;2022-12-08T02:28:26;-5.90;99.90
35678;DHT22;21791;42.828;74.582;2022-12-08T02:37:03;-5.90;99.90
35678;DHT22;21791;42.828;74.582;2022-12-08T02:40:48;-5.90;99.90
35678;DHT22;21791;42.828;74.582;2022-12-08T02:43:19;-5.80;99.90
35678;DHT22;21791;42.828;74.582;2022-12-08T02:45:56;-5.80;99.90
35678;DHT22;21791;42.828;74.582;2022-12-08T02:48:27;-5.70;99.90
35678;DHT22;21791;42.828;74.582;2022-12-08T02:50:54;-5.60;99.90
35678;DHT22;21791;42.828;74.582;2022-12-08T02:53:20;-5.40;99.90
35678;DHT22;21791;42.828;74.582;2022-12-08T02:58:48;-5.30;99.90
35678;DHT22;21791;42.828;74.582;2022-12-08T03:01:47;-5.20;99.90
35678;DHT22;21791;42.828;74.582;2022-12-08T03:12:41;-5.00;99.90
35678;DHT22;21791;42.828;74.582;2022-12-08T03:15:13;-4.90;99.90
35678;DHT22;21791;42.828;74.582;2022-12-08T03:17:46;-4.80;99.90
35678;DHT22;21791;42.828;74.582;2022-12-08T03:20:19;-4.70;99.90
35678;DHT22;21791;42.828;74.582;2022-12-08T03:22:48;-4.60;99.90
35678;DHT22;21791;42.828;74.582;2022-12-08T03:25:19;-4.40;99.90
35678;DHT22;21791;42.828;74.582;2022-12-08T03:27:46;-4.30;99.90
35678;DHT22;21791;42.828;74.582;2022-12-08T03:30:14;-4.20;99.90
35678;DHT22;21791;42.828;74.582;2022-12-08T03:35:29;-3.80;99.90
35678;DHT22;21791;42.828;74.582;2022-12-08T03:38:04;-3.70;99.90
35678;DHT22;21791;42.828;74.582;2022-12-08T03:40:33;-3.50;99.90
35678;DHT22;21791;42.828;74.582;2022-12-08T03:42:59;-3.50;99.90
35678;DHT22;21791;42.828;74.582;2022-12-08T03:45:26;-3.60;99.90
35678;DHT22;21791;42.828;74.582;2022-12-08T03:47:53;-3.70;99.90
35678;DHT22;21791;42.828;74.582;2022-12-08T03:50:19;-3.50;99.90
35678;DHT22;21791;42.828;74.582;2022-12-08T03:52:46;-3.40;99.90
35678;DHT22;21791;42.828;74.582;2022-12-08T03:55:12;-3.30;99.90
35678;DHT22;21791;42.828;74.582;2022-12-08T03:57:39;-3.20;99.90
35678;DHT22;21791;42.828;74.582;2022-12-08T04:00:10;-3.00;99.90
35678;DHT22;21791;42.828;74.582;2022-12-08T04:02:37;-2.90;99.90
35678;DHT22;21791;42.828;74.582;2022-12-08T04:05:04;-3.00;99.90
35678;DHT22;21791;42.828;74.582;2022-12-08T04:07:31;-2.90;99.90
35678;DHT22;21791;42.828;74.582;2022-12-08T04:09:59;-2.70;99.90
35678;DHT22;21791;42.828;74.582;2022-12-08T04:12:25;-2.80;99.90
35678;DHT22;21791;42.828;74.582;2022-12-08T04:14:52;-2.70;99.90
35678;DHT22;21791;42.828;74.582;2022-12-08T04:17:18;-2.50;99.90
35678;DHT22;21791;42.828;74.582;2022-12-08T04:19:45;-2.30;99.90
35678;DHT22;21791;42.828;74.582;2022-12-08T04:22:12;-2.00;99.90
35678;DHT22;21791;42.828;74.582;2022-12-08T04:24:39;-1.80;99.90
35678;DHT22;21791;42.828;74.582;2022-12-08T04:27:05;-1.70;99.90
35678;DHT22;21791;42.828;74.582;2022-12-08T04:29:32;-1.40;99.90
35678;DHT22;21791;42.828;74.582;2022-12-08T04:32:01;-1.30;99.90
35678;DHT22;21791;42.828;74.582;2022-12-08T04:34:28;-1.20;99.90
35678;DHT22;21791;42.828;74.582;2022-12-08T04:36:55;-1.00;99.90
35678;DHT22;21791;42.828;74.582;2022-12-08T04:39:21;-0.70;99.90
35678;DHT22;21791;42.828;74.582;2022-12-08T04:41:48;-0.40;99.90
35678;DHT22;21791;42.828;74.582;2022-12-08T04:44:14;-0.20;99.90
35678;DHT22;21791;42.828;74.582;2022-12-08T04:46:41;0.10;99.90
35678;DHT22;21791;42.828;74.582;2022-12-08T04:49:07;0.20;99.90
35678;DHT22;21791;42.828;74.582;2022-12-08T04:51:34;0.40;99.90
35678;DHT22;21791;42.828;74.582;2022-12-08T04:54:00;0.50;99.90
35678;DHT22;21791;42.828;74.582;2022-12-08T04:56:27;0.50;99.90
35678;DHT22;21791;42.828;74.582;2022-12-08T04:58:54;0.90;99.90
35678;DHT22;21791;42.828;74.582;2022-12-08T05:01:20;1.20;99.90
35678;DHT22;21791;42.828;74.582;2022-12-08T05:03:47;1.00;99.90
35678;DHT22;21791;42.828;74.582;2022-12-08T05:06:14;0.50;99.90
35678;DHT22;21791;42.828;74.582;2022-12-08T05:08:41;0.80;99.90
35678;DHT22;21791;42.828;74.582;2022-12-08T05:11:10;1.30;99.90
35678;DHT22;21791;42.828;74.582;2022-12-08T05:13:36;1.40;99.90
35678;DHT22;21791;42.828;74.582;2022-12-08T05:16:08;1.30;99.90
35678;DHT22;21791;42.828;74.582;2022-12-08T05:18:36;1.60;99.90
35678;DHT22;21791;42.828;74.582;2022-12-08T05:21:04;1.80;98.00
35678;DHT22;21791;42.828;74.582;2022-12-08T05:23:31;2.20;94.10
35678;DHT22;21791;42.828;74.582;2022-12-08T05:25:59;2.20;91.50
35678;DHT22;21791;42.828;74.582;2022-12-08T05:28:26;2.20;90.90
35678;DHT22;21791;42.828;74.582;2022-12-08T05:30:52;2.30;88.50
35678;DHT22;21791;42.828;74.582;2022-12-08T05:33:19;1.80;86.20
35678;DHT22;21791;42.828;74.582;2022-12-08T05:35:46;2.00;87.10
35678;DHT22;21791;42.828;74.582;2022-12-08T05:38:12;1.90;85.40
35678;DHT22;21791;42.828;74.582;2022-12-08T05:40:39;1.90;85.60
35678;DHT22;21791;42.828;74.582;2022-12-08T05:43:06;1.80;84.40
35678;DHT22;21791;42.828;74.582;2022-12-08T05:45:33;2.40;86.00
35678;DHT22;21791;42.828;74.582;2022-12-08T05:48:00;3.30;83.90
35678;DHT22;21791;42.828;74.582;2022-12-08T05:50:27;3.20;84.40
35678;DHT22;21791;42.828;74.582;2022-12-08T05:52:53;3.30;79.30
35678;DHT22;21791;42.828;74.582;2022-12-08T05:55:20;4.00;80.80
35678;DHT22;21791;42.828;74.582;2022-12-08T05:57:47;3.50;79.10
35678;DHT22;21791;42.828;74.582;2022-12-08T06:00:13;3.50;78.70
35678;DHT22;21791;42.828;74.582;2022-12-08T06:02:40;2.50;82.80
35678;DHT22;21791;42.828;74.582;2022-12-08T06:05:07;2.90;83.30
35678;DHT22;21791;42.828;74.582;2022-12-08T06:07:34;2.90;83.10
35678;DHT22;21791;42.828;74.582;2022-12-08T06:10:01;2.00;87.00
35678;DHT22;21791;42.828;74.582;2022-12-08T06:12:27;1.80;90.20
35678;DHT22;21791;42.828;74.582;2022-12-08T06:14:54;2.00;91.10
35678;DHT22;21791;42.828;74.582;2022-12-08T06:17:20;2.40;91.10
35678;DHT22;21791;42.828;74.582;2022-12-08T06:19:47;2.30;91.00
35678;DHT22;21791;42.828;74.582;2022-12-08T06:22:13;2.40;91.30
35678;DHT22;21791;42.828;74.582;2022-12-08T06:24:40;2.70;91.00
35678;DHT22;21791;42.828;74.582;2022-12-08T06:27:06;2.50;91.30
35678;DHT22;21791;42.828;74.582;2022-12-08T06:29:33;1.80;92.40
35678;DHT22;21791;42.828;74.582;2022-12-08T06:32:00;1.50;92.80
35678;DHT22;21791;42.828;74.582;2022-12-08T06:34:26;1.50;94.00
35678;DHT22;21791;42.828;74.582;2022-12-08T06:36:53;0.60;95.10
35678;DHT22;21791;42.828;74.582;2022-12-08T06:39:19;0.10;95.80
35678;DHT22;21791;42.828;74.582;2022-12-08T06:41:46;-0.30;95.50
35678;DHT22;21791;42.828;74.582;2022-12-08T06:44:31;-0.10;97.10
35678;DHT22;21791;42.828;74.582;2022-12-08T06:46:58;0.10;97.70
35678;DHT22;21791;42.828;74.582;2022-12-08T06:49:24;0.00;97.50
35678;DHT22;21791;42.828;74.582;2022-12-08T06:51:51;0.20;96.60
35678;DHT22;21791;42.828;74.582;2022-12-08T06:54:17;0.40;96.20
35678;DHT22;21791;42.828;74.582;2022-12-08T06:56:44;0.20;96.10
35678;DHT22;21791;42.828;74.582;2022-12-08T06:59:10;0.20;96.90
35678;DHT22;21791;42.828;74.582;2022-12-08T07:01:40;0.40;97.20
35678;DHT22;21791;42.828;74.582;2022-12-08T07:04:07;0.50;94.80
35678;DHT22;21791;42.828;74.582;2022-12-08T07:06:33;0.50;95.90
35678;DHT22;21791;42.828;74.582;2022-12-08T07:09:00;0.80;95.70
35678;DHT22;21791;42.828;74.582;2022-12-08T07:11:26;0.30;95.30
35678;DHT22;21791;42.828;74.582;2022-12-08T07:13:55;0.10;95.70
35678;DHT22;21791;42.828;74.582;2022-12-08T07:16:22;-0.50;95.90
35678;DHT22;21791;42.828;74.582;2022-12-08T07:18:49;-0.80;98.30
35678;DHT22;21791;42.828;74.582;2022-12-08T07:21:16;-1.00;99.90
35678;DHT22;21791;42.828;74.582;2022-12-08T07:23:47;-1.20;99.90
35678;DHT22;21791;42.828;74.582;2022-12-08T07:26:14;-1.20;99.90
35678;DHT22;21791;42.828;74.582;2022-12-08T07:28:41;-1.50;99.90
35678;DHT22;21791;42.828;74.582;2022-12-08T07:31:20;-1.30;99.90
35678;DHT22;21791;42.828;74.582;2022-12-08T07:33:47;-1.40;99.90
35678;DHT22;21791;42.828;74.582;2022-12-08T07:36:15;-1.40;99.90
35678;DHT22;21791;42.828;74.582;2022-12-08T07:38:43;-1.30;99.90
35678;DHT22;21791;42.828;74.582;2022-12-08T07:41:15;-1.60;99.90
35678;DHT22;21791;42.828;74.582;2022-12-08T07:43:42;-1.80;99.90
35678;DHT22;21791;42.828;74.582;2022-12-08T07:46:17;-2.00;99.90
35678;DHT22;21791;42.828;74.582;2022-12-08T07:48:44;-2.10;99.90
35678;DHT22;21791;42.828;74.582;2022-12-08T07:51:13;-2.00;99.90
35678;DHT22;21791;42.828;74.582;2022-12-08T07:53:41;-1.90;99.90
35678;DHT22;21791;42.828;74.582;2022-12-08T07:56:11;-1.90;99.90
35678;DHT22;21791;42.828;74.582;2022-12-08T07:58:39;-1.80;99.90
35678;DHT22;21791;42.828;74.582;2022-12-08T08:01:24;-1.80;99.90
35678;DHT22;21791;42.828;74.582;2022-12-08T08:03:51;-1.90;99.90
35678;DHT22;21791;42.828;74.582;2022-12-08T08:06:18;-1.90;99.90
35678;DHT22;21791;42.828;74.582;2022-12-08T08:08:45;-2.00;99.90
35678;DHT22;21791;42.828;74.582;2022-12-08T08:11:12;-2.00;99.90
35678;DHT22;21791;42.828;74.582;2022-12-08T08:13:38;-2.10;99.90
35678;DHT22;21791;42.828;74.582;2022-12-08T08:16:07;-2.30;99.90
35678;DHT22;21791;42.828;74.582;2022-12-08T08:18:35;-2.40;99.90
35678;DHT22;21791;42.828;74.582;2022-12-08T08:21:03;-2.40;99.90
35678;DHT22;21791;42.828;74.582;2022-12-08T08:23:29;-2.40;99.90
35678;DHT22;21791;42.828;74.582;2022-12-08T08:26:03;-2.50;99.90
35678;DHT22;21791;42.828;74.582;2022-12-08T08:28:30;-2.70;99.90
35678;DHT22;21791;42.828;74.582;2022-12-08T08:30:58;-2.80;99.90
35678;DHT22;21791;42.828;74.582;2022-12-08T08:33:25;-2.70;99.90
35678;DHT22;21791;42.828;74.582;2022-12-08T08:35:53;-2.70;99.90
35678;DHT22;21791;42.828;74.582;2022-12-08T08:38:20;-2.70;99.90
35678;DHT22;21791;42.828;74.582;2022-12-08T08:40:46;-2.90;99.90
35678;DHT22;21791;42.828;74.582;2022-12-08T08:43:14;-3.10;99.90
35678;DHT22;21791;42.828;74.582;2022-12-08T08:46:01;-3.10;99.90
35678;DHT22;21791;42.828;74.582;2022-12-08T08:48:30;-3.10;99.90
35678;DHT22;21791;42.828;74.582;2022-12-08T08:50:57;-3.30;99.90
35678;DHT22;21791;42.828;74.582;2022-12-08T08:53:24;-3.50;99.90
35678;DHT22;21791;42.828;74.582;2022-12-08T08:55:51;-3.50;99.90
35678;DHT22;21791;42.828;74.582;2022-12-08T08:58:17;-3.40;99.90
35678;DHT22;21791;42.828;74.582;2022-12-08T09:00:44;-3.30;99.90
35678;DHT22;21791;42.828;74.582;2022-12-08T09:03:11;-3.40;99.90
35678;DHT22;21791;42.828;74.582;2022-12-08T09:05:38;-3.50;99.90
35678;DHT22;21791;42.828;74.582;2022-12-08T09:08:08;-3.70;99.90
35678;DHT22;21791;42.828;74.582;2022-12-08T09:10:34;-3.80;99.90
35678;DHT22;21791;42.828;74.582;2022-12-08T09:13:01;-3.80;99.90
35678;DHT22;21791;42.828;74.582;2022-12-08T09:15:28;-3.90;99.90
35678;DHT22;21791;42.828;74.582;2022-12-08T09:17:55;-3.90;99.90
35678;DHT22;21791;42.828;74.582;2022-12-08T09:20:22;-4.20;99.90
35678;DHT22;21791;42.828;74.582;2022-12-08T09:22:48;-4.20;99.90
35678;DHT22;21791;42.828;74.582;2022-12-08T09:25:15;-4.20;99.90
35678;DHT22;21791;42.828;74.582;2022-12-08T09:27:42;-4.30;99.90
35678;DHT22;21791;42.828;74.582;2022-12-08T09:30:08;-4.30;99.90
35678;DHT22;21791;42.828;74.582;2022-12-08T09:32:35;-4.30;99.90
35678;DHT22;21791;42.828;74.582;2022-12-08T09:35:01;-4.60;99.90
35678;DHT22;21791;42.828;74.582;2022-12-08T09:37:28;-4.70;99.90
35678;DHT22;21791;42.828;74.582;2022-12-08T09:39:54;-4.70;99.90
35678;DHT22;21791;42.828;74.582;2022-12-08T09:42:36;-4.70;99.90
35678;DHT22;21791;42.828;74.582;2022-12-08T09:45:10;-4.70;99.90
35678;DHT22;21791;42.828;74.582;2022-12-08T09:47:51;-4.60;99.90
35678;DHT22;21791;42.828;74.582;2022-12-08T09:50:47;-4.70;99.90
35678;DHT22;21791;42.828;74.582;2022-12-08T10:01:30;-4.60;99.90
35678;DHT22;21791;42.828;74.582;2022-12-08T10:03:57;-4.70;99.90
35678;DHT22;21791;42.828;74.582;2022-12-08T10:09:11;-4.80;99.90
35678;DHT22;21791;42.828;74.582;2022-12-08T10:11:59;-4.90;99.90
35678;DHT22;21791;42.828;74.582;2022-12-08T10:16:57;-4.90;99.90
35678;DHT22;21791;42.828;74.582;2022-12-08T10:19:26;-4.80;99.90
35678;DHT22;21791;42.828;74.582;2022-12-08T10:21:53;-4.90;99.90
35678;DHT22;21791;42.828;74.582;2022-12-08T10:26:58;-4.80;99.90
35678;DHT22;21791;42.828;74.582;2022-12-08T10:29:25;-4.80;99.90
35678;DHT22;21791;42.828;74.582;2022-12-08T10:31:52;-5.00;99.90
35678;DHT22;21791;42.828;74.582;2022-12-08T10:34:22;-5.10;99.90
35678;DHT22;21791;42.828;74.582;2022-12-08T10:36:57;-5.10;99.90
35678;DHT22;21791;42.828;74.582;2022-12-08T10:39:33;-5.10;99.90
35678;DHT22;21791;42.828;74.582;2022-12-08T10:44:36;-5.10;99.90
35678;DHT22;21791;42.828;74.582;2022-12-08T10:47:11;-5.20;99.90
35678;DHT22;21791;42.828;74.582;2022-12-08T10:49:38;-5.10;99.90
35678;DHT22;21791;42.828;74.582;2022-12-08T10:52:27;-5.30;99.90
35678;DHT22;21791;42.828;74.582;2022-12-08T10:54:54;-5.40;99.90
35678;DHT22;21791;42.828;74.582;2022-12-08T10:57:25;-5.40;99.90
35678;DHT22;21791;42.828;74.582;2022-12-08T10:59:55;-5.50;99.90
35678;DHT22;21791;42.828;74.582;2022-12-08T11:02:22;-5.40;99.90
35678;DHT22;21791;42.828;74.582;2022-12-08T11:04:57;-5.50;99.90
35678;DHT22;21791;42.828;74.582;2022-12-08T11:07:27;-5.50;99.90
35678;DHT22;21791;42.828;74.582;2022-12-08T11:09:55;-5.70;99.90
35678;DHT22;21791;42.828;74.582;2022-12-08T11:12:27;-5.80;99.90
35678;DHT22;21791;42.828;74.582;2022-12-08T11:15:15;-5.90;99.90
35678;DHT22;21791;42.828;74.582;2022-12-08T11:17:43;-5.80;99.90
35678;DHT22;21791;42.828;74.582;2022-12-08T11:22:41;-6.00;99.90
35678;DHT22;21791;42.828;74.582;2022-12-08T11:27:41;-5.90;99.90
35678;DHT22;21791;42.828;74.582;2022-12-08T11:33:40;-6.00;99.90
35678;DHT22;21791;42.828;74.582;2022-12-08T11:36:02;-6.00;99.90
35678;DHT22;21791;42.828;74.582;2022-12-08T11:38:30;-6.20;99.90
35678;DHT22;21791;42.828;74.582;2022-12-08T11:41:10;-6.20;99.90
35678;DHT22;21791;42.828;74.582;2022-12-08T11:43:45;-6.20;99.90
35678;DHT22;21791;42.828;74.582;2022-12-08T11:46:23;-6.20;99.90
35678;DHT22;21791;42.828;74.582;2022-12-08T11:52:13;-6.30;99.90
35678;DHT22;21791;42.828;74.582;2022-12-08T11:54:34;-6.20;99.90
35678;DHT22;21791;42.828;74.582;2022-12-08T11:57:07;-6.20;99.90
35678;DHT22;21791;42.828;74.582;2022-12-08T11:59:38;-6.30;99.90
35678;DHT22;21791;42.828;74.582;2022-12-08T12:02:23;-6.30;99.90
35678;DHT22;21791;42.828;74.582;2022-12-08T12:21:00;-6.40;99.90
35678;DHT22;21791;42.828;74.582;2022-12-08T12:23:50;-6.50;99.90
35678;DHT22;21791;42.828;74.582;2022-12-08T12:26:30;-6.50;99.90
35678;DHT22;21791;42.828;74.582;2022-12-08T12:29:03;-6.40;99.90
35678;DHT22;21791;42.828;74.582;2022-12-08T12:31:40;-6.50;99.90
35678;DHT22;21791;42.828;74.582;2022-12-08T12:36:57;-6.50;99.90
35678;DHT22;21791;42.828;74.582;2022-12-08T12:39:29;-6.60;99.90
35678;DHT22;21791;42.828;74.582;2022-12-08T12:41:59;-6.60;99.90
35678;DHT22;21791;42.828;74.582;2022-12-08T12:47:01;-6.70;99.90
35678;DHT22;21791;42.828;74.582;2022-12-08T13:05:18;-6.70;99.90
35678;DHT22;21791;42.828;74.582;2022-12-08T13:07:59;-6.80;99.90
35678;DHT22;21791;42.828;74.582;2022-12-08T13:10:37;-6.90;99.90
35678;DHT22;21791;42.828;74.582;2022-12-08T13:15:55;-6.90;99.90
35678;DHT22;21791;42.828;74.582;2022-12-08T13:18:33;-6.90;99.90
35678;DHT22;21791;42.828;74.582;2022-12-08T13:21:11;-6.90;99.90
35678;DHT22;21791;42.828;74.582;2022-12-08T13:23:50;-6.90;99.90
35678;DHT22;21791;42.828;74.582;2022-12-08T13:26:49;-6.80;99.90
35678;DHT22;21791;42.828;74.582;2022-12-08T13:29:39;-6.90;99.90
35678;DHT22;21791;42.828;74.582;2022-12-08T13:34:48;-6.90;99.90
35678;DHT22;21791;42.828;74.582;2022-12-08T13:39:57;-7.00;99.90
35678;DHT22;21791;42.828;74.582;2022-12-08T13:42:46;-6.90;99.90
35678;DHT22;21791;42.828;74.582;2022-12-08T13:45:19;-6.90;99.90
35678;DHT22;21791;42.828;74.582;2022-12-08T13:48:44;-7.00;99.90
35678;DHT22;21791;42.828;74.582;2022-12-08T13:51:12;-7.00;99.90
35678;DHT22;21791;42.828;74.582;2022-12-08T13:53:45;-6.90;99.90
35678;DHT22;21791;42.828;74.582;2022-12-08T13:56:17;-6.90;99.90
35678;DHT22;21791;42.828;74.582;2022-12-08T13:58:48;-7.00;99.90
35678;DHT22;21791;42.828;74.582;2022-12-08T14:01:19;-7.00;99.90
35678;DHT22;21791;42.828;74.582;2022-12-08T14:03:55;-6.90;99.90
35678;DHT22;21791;42.828;74.582;2022-12-08T14:06:34;-6.90;99.90
35678;DHT22;21791;42.828;74.582;2022-12-08T14:09:05;-6.90;99.90
35678;DHT22;21791;42.828;74.582;2022-12-08T14:11:37;-6.90;99.90
35678;DHT22;21791;42.828;74.582;2022-12-08T14:17:00;-7.00;99.90
35678;DHT22;21791;42.828;74.582;2022-12-08T14:19:29;-7.00;99.90
35678;DHT22;21791;42.828;74.582;2022-12-08T14:24:25;-7.00;99.90
35678;DHT22;21791;42.828;74.582;2022-12-08T14:27:03;-7.00;99.90
35678;DHT22;21791;42.828;74.582;2022-12-08T14:32:05;-6.90;99.90
35678;DHT22;21791;42.828;74.582;2022-12-08T14:34:35;-7.00;99.90
35678;DHT22;21791;42.828;74.582;2022-12-08T14:37:11;-7.00;99.90
35678;DHT22;21791;42.828;74.582;2022-12-08T14:39:38;-7.00;99.90
35678;DHT22;21791;42.828;74.582;2022-12-08T14:42:06;-7.00;99.90
35678;DHT22;21791;42.828;74.582;2022-12-08T14:44:37;-6.90;99.90
35678;DHT22;21791;42.828;74.582;2022-12-08T14:47:07;-6.80;99.90
35678;DHT22;21791;42.828;74.582;2022-12-08T14:49:38;-6.80;99.90
35678;DHT22;21791;42.828;74.582;2022-12-08T14:52:11;-6.70;99.90
35678;DHT22;21791;42.828;74.582;2022-12-08T14:54:38;-6.70;99.90
35678;DHT22;21791;42.828;74.582;2022-12-08T14:57:11;-6.80;99.90
35678;DHT22;21791;42.828;74.582;2022-12-08T14:59:40;-6.70;99.90
35678;DHT22;21791;42.828;74.582;2022-12-08T15:02:30;-6.60;99.90
35678;DHT22;21791;42.828;74.582;2022-12-08T15:05:13;-6.60;99.90
35678;DHT22;21791;42.828;74.582;2022-12-08T15:07:58;-6.70;99.90
35678;DHT22;21791;42.828;74.582;2022-12-08T15:10:30;-6.80;99.90
35678;DHT22;21791;42.828;74.582;2022-12-08T15:15:51;-6.80;99.90
35678;DHT22;21791;42.828;74.582;2022-12-08T15:18:21;-6.80;99.90
35678;DHT22;21791;42.828;74.582;2022-12-08T15:21:04;-6.70;99.90
35678;DHT22;21791;42.828;74.582;2022-12-08T15:23:43;-6.70;99.90
35678;DHT22;21791;42.828;74.582;2022-12-08T15:26:20;-6.70;99.90
35678;DHT22;21791;42.828;74.582;2022-12-08T15:28:47;-6.80;99.90
35678;DHT22;21791;42.828;74.582;2022-12-08T15:31:16;-6.80;99.90
35678;DHT22;21791;42.828;74.582;2022-12-08T15:33:43;-6.70;99.90
35678;DHT22;21791;42.828;74.582;2022-12-08T15:36:11;-6.70;99.90
35678;DHT22;21791;42.828;74.582;2022-12-08T15:38:38;-6.80;99.90
35678;DHT22;21791;42.828;74.582;2022-12-08T15:41:04;-6.80;99.90
35678;DHT22;21791;42.828;74.582;2022-12-08T15:43:31;-6.80;99.90
35678;DHT22;21791;42.828;74.582;2022-12-08T15:45:58;-6.70;99.90
35678;DHT22;21791;42.828;74.582;2022-12-08T15:48:27;-6.70;99.90
35678;DHT22;21791;42.828;74.582;2022-12-08T15:50:55;-6.70;99.90
35678;DHT22;21791;42.828;74.582;2022-12-08T15:53:22;-6.70;99.90
35678;DHT22;21791;42.828;74.582;2022-12-08T15:55:50;-6.80;99.90
35678;DHT22;21791;42.828;74.582;2022-12-08T15:58:25;-6.70;99.90
35678;DHT22;21791;42.828;74.582;2022-12-08T16:00:52;-6.70;99.90
35678;DHT22;21791;42.828;74.582;2022-12-08T16:03:25;-6.70;99.90
35678;DHT22;21791;42.828;74.582;2022-12-08T16:05:56;-6.70;99.90
35678;DHT22;21791;42.828;74.582;2022-12-08T16:08:30;-6.80;99.90
35678;DHT22;21791;42.828;74.582;2022-12-08T16:10:57;-6.80;99.90
35678;DHT22;21791;42.828;74.582;2022-12-08T16:13:44;-6.80;99.90
35678;DHT22;21791;42.828;74.582;2022-12-08T16:16:18;-6.70;99.90
35678;DHT22;21791;42.828;74.582;2022-12-08T16:18:49;-6.70;99.90
35678;DHT22;21791;42.828;74.582;2022-12-08T16:21:19;-6.70;99.90
35678;DHT22;21791;42.828;74.582;2022-12-08T16:23:46;-6.80;99.90
35678;DHT22;21791;42.828;74.582;2022-12-08T16:26:15;-6.80;99.90
35678;DHT22;21791;42.828;74.582;2022-12-08T16:28:42;-6.80;99.90
35678;DHT22;21791;42.828;74.582;2022-12-08T16:31:12;-6.80;99.90
35678;DHT22;21791;42.828;74.582;2022-12-08T16:33:45;-6.70;99.90
35678;DHT22;21791;42.828;74.582;2022-12-08T16:36:12;-6.80;99.90
35678;DHT22;21791;42.828;74.582;2022-12-08T16:38:38;-6.80;99.90
35678;DHT22;21791;42.828;74.582;2022-12-08T16:41:05;-6.70;99.90
35678;DHT22;21791;42.828;74.582;2022-12-08T16:43:50;-6.80;99.90
35678;DHT22;21791;42.828;74.582;2022-12-08T16:46:23;-6.70;99.90
35678;DHT22;21791;42.828;74.582;2022-12-08T16:48:51;-6.70;99.90
35678;DHT22;21791;42.828;74.582;2022-12-08T16:51:19;-6.70;99.90
35678;DHT22;21791;42.828;74.582;2022-12-08T16:53:46;-6.70;99.90
35678;DHT22;21791;42.828;74.582;2022-12-08T16:56:17;-6.90;99.90
35678;DHT22;21791;42.828;74.582;2022-12-08T16:58:44;-6.80;99.90
35678;DHT22;21791;42.828;74.582;2022-12-08T17:01:15;-6.90;99.90
35678;DHT22;21791;42.828;74.582;2022-12-08T17:03:43;-6.80;99.90
35678;DHT22;21791;42.828;74.582;2022-12-08T17:06:12;-6.80;99.90
35678;DHT22;21791;42.828;74.582;2022-12-08T17:08:40;-6.70;99.90
35678;DHT22;21791;42.828;74.582;2022-12-08T17:11:08;-6.90;99.90
35678;DHT22;21791;42.828;74.582;2022-12-08T17:13:39;-6.90;99.90
35678;DHT22;21791;42.828;74.582;2022-12-08T17:16:12;-6.80;99.90
35678;DHT22;21791;42.828;74.582;2022-12-08T17:18:40;-6.80;99.90
35678;DHT22;21791;42.828;74.582;2022-12-08T17:21:10;-6.80;99.90
35678;DHT22;21791;42.828;74.582;2022-12-08T17:23:50;-6.80;99.90
35678;DHT22;21791;42.828;74.582;2022-12-08T17:26:17;-6.90;99.90
35678;DHT22;21791;42.828;74.582;2022-12-08T17:28:43;-7.10;99.90
35678;DHT22;21791;42.828;74.582;2022-12-08T17:31:12;-7.00;99.90
35678;DHT22;21791;42.828;74.582;2022-12-08T17:34:01;-7.10;99.90
35678;DHT22;21791;42.828;74.582;2022-12-08T17:36:28;-7.10;99.90